createdAt,value
2022-10-19T00:00:30.262Z,7.75
2022-10-19T00:03:05.742Z,8.68
2022-10-19T00:05:41.216Z,10.52
2022-10-19T00:08:16.459Z,9.63
2022-10-19T00:10:53.603Z,8.38
2022-10-19T00:13:28.810Z,7.50
2022-10-19T00:16:05.807Z,8.70
2022-10-19T00:18:47.086Z,6.85
2022-10-19T00:21:23.527Z,12.32
2022-10-19T00:23:58.667Z,9.05
2022-10-19T00:26:37.850Z,12.05
2022-10-19T00:29:14.347Z,8.88
2022-10-19T00:31:50.119Z,6.68
2022-10-19T00:34:26.509Z,8.73
2022-10-19T00:37:02.682Z,8.48
2022-10-19T00:39:37.872Z,6.72
2022-10-19T00:42:16.608Z,7.82
2022-10-19T00:45:12.407Z,10.55
2022-10-19T00:47:49.316Z,8.30
2022-10-19T00:50:27.941Z,10.68
2022-10-19T00:53:03.214Z,8.52
2022-10-19T00:55:39.123Z,11.02
2022-10-19T00:58:16.898Z,8.75
2022-10-19T01:00:52.336Z,11.70
2022-10-19T01:03:27.470Z,11.95
2022-10-19T01:06:06.270Z,13.60
2022-10-19T01:08:43.916Z,11.77
2022-10-19T01:11:31.294Z,9.85
2022-10-19T01:14:24.407Z,8.10
2022-10-19T01:17:05.280Z,10.30
2022-10-19T01:20:22.992Z,8.55
2022-10-19T01:23:15.841Z,9.10
2022-10-19T01:26:00.209Z,9.02
2022-10-19T01:28:49.982Z,11.18
2022-10-19T01:31:37.359Z,9.95
2022-10-19T01:34:18.024Z,9.40
2022-10-19T01:37:07.006Z,10.75
2022-10-19T01:39:49.840Z,9.30
2022-10-19T01:42:33.591Z,14.30
2022-10-19T01:45:16.384Z,11.25
2022-10-19T01:47:57.634Z,11.43
2022-10-19T01:50:36.547Z,14.95
2022-10-19T01:53:15.010Z,8.82
2022-10-19T01:55:55.698Z,10.30
2022-10-19T01:58:34.879Z,7.38
2022-10-19T02:01:13.391Z,11.73
2022-10-19T02:03:51.221Z,7.70
2022-10-19T02:06:30.098Z,6.28
2022-10-19T02:09:05.116Z,6.63
2022-10-19T02:11:44.141Z,8.85
2022-10-19T02:14:24.051Z,9.02
2022-10-19T02:17:02.511Z,9.45
2022-10-19T02:19:40.490Z,8.32
2022-10-19T02:22:16.508Z,6.55
2022-10-19T02:24:51.929Z,8.15
2022-10-19T02:27:27.552Z,5.60
2022-10-19T02:30:25.513Z,6.00
2022-10-19T02:33:01.037Z,6.30
2022-10-19T02:35:38.088Z,5.32
2022-10-19T02:38:15.910Z,6.90
2022-10-19T02:40:56.062Z,5.35
2022-10-19T02:43:32.943Z,7.70
2022-10-19T02:46:15.463Z,6.63
2022-10-19T02:48:51.597Z,5.10
2022-10-19T02:51:41.061Z,6.45
2022-10-19T02:54:16.611Z,5.88
2022-10-19T02:56:51.721Z,6.05
2022-10-19T02:59:27.058Z,5.78
2022-10-19T03:02:02.202Z,6.32
2022-10-19T03:04:37.792Z,6.53
2022-10-19T03:07:18.591Z,9.32
2022-10-19T03:09:53.955Z,7.90
2022-10-19T03:12:29.824Z,7.78
2022-10-19T03:15:06.798Z,9.57
2022-10-19T03:17:43.311Z,7.78
2022-10-19T03:20:19.682Z,7.28
2022-10-19T03:22:57.066Z,6.15
2022-10-19T03:25:33.548Z,9.35
2022-10-19T03:28:09.593Z,7.45
2022-10-19T03:30:44.982Z,5.47
2022-10-19T03:33:20.476Z,7.32
2022-10-19T03:35:56.020Z,6.43
2022-10-19T03:38:33.143Z,6.63
2022-10-19T03:41:11.414Z,7.78
2022-10-19T03:43:46.581Z,7.15
2022-10-19T03:46:21.720Z,6.72
2022-10-19T03:48:57.208Z,9.25
2022-10-19T03:51:34.128Z,7.65
2022-10-19T03:54:13.259Z,7.53
2022-10-19T03:56:48.307Z,8.23
2022-10-19T03:59:24.693Z,9.10
2022-10-19T04:01:59.928Z,6.15
2022-10-19T04:04:34.997Z,8.75
2022-10-19T04:07:10.133Z,6.28
2022-10-19T04:09:50.313Z,7.97
2022-10-19T04:12:25.589Z,8.43
2022-10-19T04:15:00.723Z,8.25
2022-10-19T04:17:37.256Z,8.82
2022-10-19T04:20:13.433Z,8.63
2022-10-19T04:22:49.883Z,8.75
2022-10-19T04:25:27.150Z,6.43
2022-10-19T04:28:02.751Z,8.48
2022-10-19T04:30:38.540Z,7.88
2022-10-19T04:33:14.123Z,6.72
2022-10-19T04:35:49.386Z,7.72
2022-10-19T04:38:24.720Z,9.27
2022-10-19T04:41:05.001Z,8.57
2022-10-19T04:43:40.399Z,9.57
2022-10-19T04:46:16.139Z,9.90
2022-10-19T04:48:52.250Z,7.97
2022-10-19T04:51:28.207Z,7.13
2022-10-19T04:54:04.834Z,7.18
2022-10-19T04:56:43.963Z,9.00
2022-10-19T04:59:18.977Z,9.45
2022-10-19T05:01:54.187Z,9.98
2022-10-19T05:04:29.444Z,9.73
2022-10-19T05:07:05.382Z,7.07
2022-10-19T05:09:42.083Z,10.05
2022-10-19T05:12:19.578Z,8.18
2022-10-19T05:14:55.428Z,9.90
2022-10-19T05:17:30.903Z,7.88
2022-10-19T05:20:06.429Z,10.63
2022-10-19T05:22:44.883Z,9.15
2022-10-19T05:25:20.126Z,12.35
2022-10-19T05:28:00.311Z,11.13
2022-10-19T05:30:36.562Z,10.82
2022-10-19T05:33:13.707Z,9.75
2022-10-19T05:35:48.933Z,9.23
2022-10-19T05:38:25.169Z,10.80
2022-10-19T05:41:00.514Z,10.38
2022-10-19T05:43:40.447Z,13.27
2022-10-19T05:46:17.427Z,11.52
2022-10-19T05:48:53.251Z,15.65
2022-10-19T05:51:30.037Z,10.25
2022-10-19T05:54:05.597Z,10.73
2022-10-19T05:56:40.717Z,8.40
2022-10-19T05:59:21.556Z,13.55
2022-10-19T06:01:56.571Z,11.77
2022-10-19T06:04:31.904Z,9.65
2022-10-19T06:07:07.505Z,11.48
2022-10-19T06:25:02.133Z,8.10
2022-10-19T06:31:22.837Z,10.95
2022-10-19T06:34:00.133Z,13.55
2022-10-19T06:36:36.900Z,12.15
2022-10-19T06:39:11.968Z,12.48
2022-10-19T06:41:47.013Z,11.45
2022-10-19T06:44:29.796Z,11.45
2022-10-19T06:47:07.648Z,10.43
2022-10-19T06:49:45.975Z,13.77
2022-10-19T06:52:21.172Z,10.93
2022-10-19T06:54:56.302Z,11.80
2022-10-19T06:57:32.161Z,15.27
2022-10-19T07:00:09.203Z,13.60
2022-10-19T07:02:46.146Z,10.02
2022-10-19T07:05:21.364Z,12.23
2022-10-19T07:07:56.431Z,13.95
2022-10-19T07:10:31.535Z,13.68
2022-10-19T07:13:06.736Z,12.60
2022-10-19T07:15:41.840Z,10.85
2022-10-19T07:18:20.771Z,11.15
2022-10-19T07:21:01.462Z,14.85
2022-10-19T07:23:37.022Z,13.80
2022-10-19T07:26:13.949Z,11.77
2022-10-19T07:28:51.201Z,10.88
2022-10-19T07:31:27.583Z,12.00
2022-10-19T07:34:07.495Z,8.27
2022-10-19T07:36:46.604Z,11.27
2022-10-19T07:39:22.677Z,15.13
2022-10-19T07:41:57.913Z,13.48
2022-10-19T07:44:33.592Z,11.98
2022-10-19T07:47:09.883Z,12.13
2022-10-19T07:49:47.198Z,12.05
2022-10-19T07:52:22.378Z,10.85
2022-10-19T07:54:58.131Z,12.13
2022-10-19T07:57:33.679Z,11.45
2022-10-19T08:00:09.396Z,10.82
2022-10-19T08:03:04.983Z,8.90
2022-10-19T08:05:43.772Z,11.48
2022-10-19T08:08:18.993Z,10.40
2022-10-19T08:10:54.468Z,8.52
2022-10-19T08:13:29.702Z,11.88
2022-10-19T08:16:05.583Z,9.63
2022-10-19T08:18:40.751Z,11.52
2022-10-19T08:21:17.792Z,11.90
2022-10-19T08:23:53.021Z,10.20
2022-10-19T08:26:28.329Z,14.15
2022-10-19T08:29:10.912Z,11.63
2022-10-19T08:31:48.757Z,9.90
2022-10-19T08:34:26.305Z,12.10
2022-10-19T08:37:10.233Z,13.75
2022-10-19T08:39:56.298Z,10.02
2022-10-19T08:42:33.990Z,8.43
2022-10-19T08:45:31.452Z,12.60
2022-10-19T08:48:15.533Z,13.02
2022-10-19T08:50:51.962Z,9.13
2022-10-19T08:53:36.525Z,11.48
2022-10-19T08:56:49.823Z,11.55
2022-10-19T08:59:35.994Z,11.95
2022-10-19T09:02:19.859Z,9.82
2022-10-19T09:05:00.522Z,10.23
2022-10-19T09:07:39.139Z,10.27
2022-10-19T09:10:26.027Z,10.27
2022-10-19T09:13:05.741Z,11.45
2022-10-19T09:15:45.936Z,9.07
2022-10-19T09:18:29.422Z,12.05
2022-10-19T09:21:10.494Z,11.77
2022-10-19T09:23:49.217Z,14.45
2022-10-19T09:26:30.979Z,10.30
2022-10-19T09:29:11.312Z,12.43
2022-10-19T09:31:46.921Z,14.18
2022-10-19T09:34:27.713Z,15.05
2022-10-19T09:37:06.958Z,11.70
2022-10-19T09:39:51.065Z,15.32
2022-10-19T09:42:34.906Z,14.20
2022-10-19T09:45:20.990Z,14.55
2022-10-19T09:48:00.473Z,14.32
2022-10-19T09:50:42.647Z,13.18
2022-10-19T09:53:28.258Z,14.80
2022-10-19T09:56:09.776Z,13.77
2022-10-19T09:58:52.875Z,17.85
2022-10-19T10:01:41.966Z,13.65
2022-10-19T10:04:20.521Z,16.00
2022-10-19T10:06:55.963Z,12.07
2022-10-19T10:09:32.076Z,12.63
2022-10-19T10:12:10.113Z,10.45
2022-10-19T10:14:47.529Z,12.07
2022-10-19T10:17:24.315Z,11.50
2022-10-19T10:20:09.392Z,11.75
2022-10-19T10:22:44.828Z,12.98
2022-10-19T10:25:24.611Z,10.82
2022-10-19T10:28:04.380Z,17.30
2022-10-19T10:30:43.065Z,13.00
2022-10-19T10:33:33.271Z,9.85
2022-10-19T10:36:16.330Z,11.25
2022-10-19T10:38:53.447Z,11.15
2022-10-19T10:41:30.749Z,11.88
2022-10-19T10:44:08.462Z,11.98
2022-10-19T10:46:49.763Z,12.93
2022-10-19T10:49:27.139Z,10.25
2022-10-19T10:52:03.137Z,10.63
2022-10-19T10:54:38.243Z,9.73
2022-10-19T10:57:20.208Z,13.02
2022-10-19T11:00:00.689Z,12.70
2022-10-19T11:02:42.273Z,13.77
2022-10-19T11:05:19.208Z,10.07
2022-10-19T11:07:56.728Z,10.20
2022-10-19T11:10:34.442Z,9.82
2022-10-19T11:13:12.535Z,12.55
2022-10-19T11:15:53.585Z,12.88
2022-10-19T11:18:32.870Z,11.95
2022-10-19T11:21:12.408Z,13.00
2022-10-19T11:23:53.819Z,13.65
2022-10-19T11:26:37.315Z,10.25
2022-10-19T11:29:18.577Z,10.80
2022-10-19T11:31:54.841Z,10.45
2022-10-19T11:34:40.365Z,17.30
2022-10-19T11:37:22.045Z,10.88
2022-10-19T11:40:05.836Z,12.00
2022-10-19T11:42:50.348Z,11.48
2022-10-19T11:45:34.978Z,10.20
2022-10-19T11:48:22.943Z,15.23
2022-10-19T11:51:16.873Z,9.85
2022-10-19T11:54:03.807Z,10.80
2022-10-19T11:57:01.760Z,10.32
2022-10-19T11:59:45.604Z,11.30
2022-10-19T12:02:30.181Z,11.27
2022-10-19T12:05:06.592Z,11.98
2022-10-19T12:08:04.864Z,12.93
2022-10-19T12:10:48.239Z,12.65
2022-10-19T12:13:28.112Z,11.93
2022-10-19T12:16:10.676Z,14.07
2022-10-19T12:18:49.943Z,11.48
2022-10-19T12:21:31.507Z,11.30
2022-10-19T12:24:10.036Z,11.18
2022-10-19T12:26:47.180Z,16.33
2022-10-19T12:29:26.353Z,12.23
2022-10-19T12:32:03.413Z,14.38
2022-10-19T12:34:43.829Z,10.82
2022-10-19T12:37:23.693Z,15.13
2022-10-19T12:40:26.660Z,14.00
2022-10-19T12:43:06.561Z,13.43
2022-10-19T12:45:42.879Z,12.40
2022-10-19T12:48:29.569Z,16.30
2022-10-19T12:51:08.075Z,15.02
2022-10-19T12:53:43.620Z,14.30
2022-10-19T12:56:22.989Z,11.80
2022-10-19T12:59:01.490Z,16.58
2022-10-19T13:01:46.780Z,14.05
2022-10-19T13:04:21.942Z,12.13
2022-10-19T13:06:57.054Z,11.45
2022-10-19T13:09:34.154Z,11.82
2022-10-19T13:12:26.208Z,10.13
2022-10-19T13:15:02.903Z,16.20
2022-10-19T13:17:45.707Z,17.90
2022-10-19T13:20:37.385Z,13.18
2022-10-19T13:23:38.622Z,12.40
2022-10-19T13:26:41.795Z,12.45
2022-10-19T13:29:29.407Z,13.55
2022-10-19T13:32:33.133Z,13.20
2022-10-19T13:35:28.188Z,18.63
2022-10-19T13:38:20.617Z,13.32
2022-10-19T13:41:04.735Z,14.57
2022-10-19T13:43:43.563Z,15.32
2022-10-19T13:46:20.666Z,14.45
2022-10-19T13:49:14.363Z,15.10
2022-10-19T13:51:53.908Z,16.52
2022-10-19T13:54:37.991Z,19.65
2022-10-19T13:57:16.284Z,16.38
2022-10-19T14:00:08.722Z,16.55
2022-10-19T14:02:52.923Z,15.20
2022-10-19T14:05:41.675Z,18.38
2022-10-19T14:08:20.441Z,16.30
2022-10-19T14:11:01.057Z,19.15
2022-10-19T14:13:35.925Z,15.23
2022-10-19T14:16:11.983Z,17.52
2022-10-19T14:18:48.652Z,17.13
2022-10-19T14:21:33.626Z,18.73
2022-10-19T14:24:07.864Z,16.98
2022-10-19T14:26:45.067Z,13.82
2022-10-19T14:29:19.520Z,13.10
2022-10-19T14:31:54.046Z,15.20
2022-10-19T14:34:28.515Z,13.63
2022-10-19T14:37:08.961Z,13.90
2022-10-19T14:39:43.758Z,17.42
2022-10-19T14:42:20.101Z,20.33
2022-10-19T14:44:54.791Z,16.73
2022-10-19T14:47:29.868Z,11.15
2022-10-19T14:50:04.287Z,17.95
2022-10-19T14:52:42.452Z,16.30
2022-10-19T14:55:21.705Z,15.30
2022-10-19T14:57:56.767Z,16.10
2022-10-19T15:00:34.034Z,14.82
2022-10-19T15:03:10.162Z,16.63
2022-10-19T15:05:46.714Z,15.95
2022-10-19T15:08:25.840Z,17.10
2022-10-19T15:11:01.761Z,15.73
2022-10-19T15:13:41.301Z,13.07
2022-10-19T15:16:40.373Z,15.98
2022-10-19T15:19:21.734Z,14.18
2022-10-19T15:22:10.332Z,15.77
2022-10-19T15:24:59.407Z,13.65
2022-10-19T15:27:35.444Z,14.85
2022-10-19T15:30:10.841Z,12.70
2022-10-19T15:32:45.279Z,15.82
2022-10-19T15:35:24.342Z,18.27
2022-10-19T15:38:05.568Z,14.98
2022-10-19T15:40:42.692Z,15.95
2022-10-19T15:43:40.549Z,18.20
2022-10-19T15:46:27.017Z,15.30
2022-10-19T15:49:02.925Z,15.07
2022-10-19T15:51:38.516Z,15.65
2022-10-19T15:54:13.060Z,17.73
2022-10-19T15:56:51.323Z,12.70
2022-10-19T15:59:29.033Z,17.85
2022-10-19T16:02:03.494Z,13.27
2022-10-19T16:04:40.857Z,16.40
2022-10-19T16:07:20.093Z,15.48
2022-10-19T16:09:55.235Z,13.57
2022-10-19T16:12:31.879Z,12.13
2022-10-19T16:15:06.495Z,13.35
2022-10-19T16:17:40.908Z,11.90
2022-10-19T16:20:18.247Z,17.33
2022-10-19T16:22:53.233Z,15.48
2022-10-19T16:25:27.734Z,15.18
2022-10-19T16:28:04.626Z,16.70
2022-10-19T16:30:39.196Z,14.73
2022-10-19T16:33:13.879Z,13.27
2022-10-19T16:35:48.302Z,13.38
2022-10-19T16:38:22.994Z,13.60
2022-10-19T16:40:57.247Z,17.05
2022-10-19T16:43:34.600Z,14.15
2022-10-19T16:46:11.310Z,13.68
2022-10-19T16:48:48.557Z,17.58
2022-10-19T16:51:30.166Z,14.60
2022-10-19T16:54:05.392Z,14.38
2022-10-19T16:56:40.281Z,14.07
2022-10-19T16:59:18.349Z,12.40
2022-10-19T17:01:53.969Z,13.52
2022-10-19T17:04:31.365Z,15.60
2022-10-19T17:07:09.982Z,14.70
2022-10-19T17:09:44.363Z,11.77
2022-10-19T17:12:18.965Z,12.20
2022-10-19T17:15:17.608Z,12.10
2022-10-19T17:17:52.826Z,12.38
2022-10-19T17:20:27.202Z,13.93
2022-10-19T17:23:04.465Z,13.50
2022-10-19T17:25:39.148Z,17.70
2022-10-19T17:28:14.864Z,14.43
2022-10-19T17:30:51.809Z,14.40
2022-10-19T17:33:28.974Z,14.70
2022-10-19T17:36:17.426Z,13.18
2022-10-19T17:38:52.154Z,12.43
2022-10-19T17:41:28.401Z,15.93
2022-10-19T17:44:02.763Z,17.85
2022-10-19T17:46:57.293Z,14.35
2022-10-19T17:49:32.486Z,13.98
2022-10-19T17:52:06.885Z,15.48
2022-10-19T17:54:48.991Z,18.38
2022-10-19T17:57:41.000Z,16.38
2022-10-19T18:00:15.519Z,17.77
2022-10-19T18:02:52.647Z,13.00
2022-10-19T18:05:27.524Z,17.38
2022-10-19T18:08:01.910Z,14.35
2022-10-19T18:10:39.864Z,17.27
2022-10-19T18:13:14.782Z,17.25
2022-10-19T18:15:49.276Z,13.68
2022-10-19T18:18:27.405Z,19.02
2022-10-19T18:21:01.676Z,14.88
2022-10-19T18:23:36.007Z,13.07
2022-10-19T18:26:11.303Z,14.30
2022-10-19T18:28:46.236Z,14.98
2022-10-19T18:31:22.411Z,10.15
2022-10-19T18:34:02.709Z,15.38
2022-10-19T18:36:49.554Z,13.93
2022-10-19T18:39:27.027Z,13.95
2022-10-19T18:42:01.476Z,13.75
2022-10-19T18:44:36.990Z,10.77
2022-10-19T18:47:13.478Z,13.07
2022-10-19T18:49:50.887Z,10.30
2022-10-19T18:52:25.085Z,15.35
2022-10-19T18:55:02.422Z,12.07
2022-10-19T18:57:37.202Z,11.88
2022-10-19T19:00:12.392Z,12.57
2022-10-19T19:02:47.512Z,10.73
2022-10-19T19:05:23.969Z,11.93
2022-10-19T19:07:58.797Z,10.80
2022-10-19T19:10:33.036Z,15.70
2022-10-19T19:13:09.696Z,10.48
2022-10-19T19:15:46.763Z,11.95
2022-10-19T19:18:21.008Z,15.43
2022-10-19T19:20:57.620Z,12.15
2022-10-19T19:23:32.264Z,9.95
2022-10-19T19:26:07.958Z,11.95
2022-10-19T19:28:46.390Z,10.73
2022-10-19T19:31:25.129Z,11.80
2022-10-19T19:33:59.332Z,15.98
2022-10-19T19:36:35.693Z,15.82
2022-10-19T19:39:10.110Z,17.02
2022-10-19T19:41:44.825Z,14.25
2022-10-19T19:44:20.088Z,17.25
2022-10-19T19:46:54.485Z,9.90
2022-10-19T19:49:28.730Z,13.73
2022-10-19T19:52:06.760Z,14.45
2022-10-19T19:54:41.213Z,14.65
2022-10-19T19:57:15.586Z,14.75
2022-10-19T19:59:50.125Z,11.25
2022-10-19T20:02:28.516Z,11.50
2022-10-19T20:05:06.110Z,13.75
2022-10-19T20:07:42.220Z,10.82
2022-10-19T20:10:17.726Z,12.18
2022-10-19T20:12:52.308Z,13.82
2022-10-19T20:15:27.813Z,13.25
2022-10-19T20:18:03.278Z,9.85
2022-10-19T20:20:37.517Z,15.60
2022-10-19T20:23:13.658Z,13.23
2022-10-19T20:25:48.351Z,10.57
2022-10-19T20:28:23.116Z,17.35
2022-10-19T20:31:04.665Z,13.27
2022-10-19T20:33:40.112Z,10.02
2022-10-19T20:36:14.993Z,10.93
2022-10-19T20:38:53.628Z,10.98
2022-10-19T20:41:28.572Z,8.45
2022-10-19T20:44:02.769Z,13.73
2022-10-19T20:46:38.559Z,12.02
2022-10-19T20:49:12.774Z,11.18
2022-10-19T20:51:49.295Z,11.18
2022-10-19T20:54:25.918Z,10.82
2022-10-19T20:57:00.139Z,9.88
2022-10-19T20:59:35.039Z,10.10
2022-10-19T21:02:09.227Z,11.02
2022-10-19T21:04:43.969Z,13.48
2022-10-19T21:07:19.081Z,10.55
2022-10-19T21:09:56.793Z,11.77
2022-10-19T21:12:31.063Z,11.93
2022-10-19T21:15:05.458Z,9.27
2022-10-19T21:17:39.770Z,9.70
2022-10-19T21:20:14.795Z,9.13
2022-10-19T21:22:49.084Z,17.95
2022-10-19T21:25:25.723Z,12.95
2022-10-19T21:28:03.623Z,11.70
2022-10-19T21:30:41.160Z,13.30
2022-10-19T21:33:15.347Z,8.68
2022-10-19T21:38:24.448Z,8.98
2022-10-19T21:41:07.402Z,11.70
2022-10-19T21:43:41.810Z,10.13
2022-10-19T21:46:17.503Z,8.32
2022-10-19T21:48:52.061Z,11.43
2022-10-19T21:51:29.136Z,8.68
2022-10-19T21:54:04.146Z,9.35
2022-10-19T21:56:41.695Z,15.18
2022-10-19T21:59:16.151Z,10.18
2022-10-19T22:01:51.901Z,8.30
2022-10-19T22:04:26.380Z,14.00
2022-10-19T22:07:01.217Z,10.73
2022-10-19T22:09:35.791Z,8.40
2022-10-19T22:12:12.146Z,10.82
2022-10-19T22:14:46.940Z,10.23
2022-10-19T22:17:21.246Z,7.60
2022-10-19T22:19:55.699Z,10.88
2022-10-19T22:22:29.930Z,12.18
2022-10-19T22:25:04.099Z,12.23
2022-10-19T22:27:42.069Z,13.38
2022-10-19T22:30:16.458Z,12.05
2022-10-19T22:32:52.023Z,11.95
2022-10-19T22:35:29.665Z,15.60
2022-10-19T22:38:05.088Z,10.27
2022-10-19T22:40:40.320Z,14.50
2022-10-19T22:43:33.314Z,13.98
2022-10-19T22:46:27.506Z,17.98
2022-10-19T22:49:02.183Z,26.17
2022-10-19T22:51:37.551Z,10.57
2022-10-19T22:54:11.767Z,11.20
2022-10-19T22:56:46.496Z,9.18
2022-10-19T22:59:21.207Z,10.27
2022-10-19T23:01:58.567Z,9.50
2022-10-19T23:04:33.142Z,9.95
2022-10-19T23:07:07.346Z,11.45
2022-10-19T23:09:41.587Z,8.85
2022-10-19T23:12:16.638Z,11.55
2022-10-19T23:14:52.078Z,8.40
2022-10-19T23:17:28.780Z,9.20
2022-10-19T23:20:03.454Z,13.38
2022-10-19T23:22:37.846Z,8.35
2022-10-19T23:25:15.922Z,7.45
2022-10-19T23:27:50.246Z,8.70
2022-10-19T23:30:24.373Z,5.22
2022-10-19T23:33:00.935Z,7.53
2022-10-19T23:35:35.097Z,7.00
2022-10-19T23:38:10.016Z,8.30
2022-10-19T23:40:44.187Z,7.35
2022-10-19T23:43:18.505Z,10.80
2022-10-19T23:45:53.154Z,7.93
2022-10-19T23:48:30.458Z,7.15
2022-10-19T23:51:06.384Z,10.43
2022-10-19T23:53:43.094Z,7.05
2022-10-19T23:56:20.793Z,7.45
2022-10-19T23:58:56.804Z,8.25
